Time;durP1;ratioP1;P1;durP2;ratioP2;P2;SDS_P1;SDS_P2;PMS_P1;PMS_P2;Temp;Humidity;BMP_temperature;BMP_pressure;BME280_temperature;BME280_humidity;BME280_pressure;Samples;Min_cycle;Max_cycle;Signal;HPM_P1;HPM_P2
2021/04/28 00:02:15;;;;;;;9.00;4.68;;;;;;;;;;3588277;40;20126;-54
2021/04/28 00:04:40;;;;;;;13.20;5.43;;;;;;;;;;3589407;40;20069;-53
2021/04/28 00:07:06;;;;;;;10.85;5.57;;;;;;;;;;3590787;39;20040;-53
2021/04/28 00:09:32;;;;;;;7.47;5.25;;;;;;;;;;3590624;40;20052;-53
2021/04/28 00:11:59;;;;;;;13.18;5.60;;;;;;;;;;3593253;39;20032;-52
2021/04/28 00:14:24;;;;;;;8.25;5.00;;;;;;;;;;3590097;40;20031;-53
2021/04/28 00:16:50;;;;;;;6.90;4.43;;;;;;;;;;3588819;40;20057;-55
2021/04/28 00:19:16;;;;;;;7.13;5.20;;;;;;;;;;3590673;40;20853;-51
2021/04/28 00:21:42;;;;;;;12.55;6.47;;;;;;;;;;3592591;40;20044;-55
2021/04/28 00:24:09;;;;;;;8.32;4.75;;;;;;;;;;3589665;39;20040;-55
2021/04/28 00:26:34;;;;;;;12.07;5.45;;;;;;;;;;3592049;39;20092;-55
2021/04/28 00:28:59;;;;;;;7.97;5.28;;;;;;;;;;3590046;40;20036;-56
2021/04/28 00:31:25;;;;;;;9.15;5.50;;;;;;;;;;3590901;40;20052;-55
2021/04/28 00:33:50;;;;;;;11.90;5.15;;;;;;;;;;3591460;39;20060;-53
2021/04/28 00:36:16;;;;;;;13.93;5.90;;;;;;;;;;3591767;40;20060;-56
2021/04/28 00:38:41;;;;;;;13.68;5.47;;;;;;;;;;3590177;40;20060;-56
2021/04/28 00:41:09;;;;;;;10.80;5.60;;;;;;;;;;3594042;40;20060;-54
2021/04/28 00:43:36;;;;;;;13.40;5.75;;;;;;;;;;3589769;40;20124;-54
2021/04/28 00:46:01;;;;;;;9.38;5.70;;;;;;;;;;3590806;40;20056;-52
2021/04/28 00:48:27;;;;;;;8.50;5.32;;;;;;;;;;3593166;40;20037;-54
2021/04/28 00:50:53;;;;;;;7.60;5.10;;;;;;;;;;3593790;40;20032;-56
2021/04/28 00:53:20;;;;;;;11.77;5.50;;;;;;;;;;3589446;40;20040;-53
2021/04/28 00:55:47;;;;;;;14.43;5.65;;;;;;;;;;3589893;40;20064;-55
2021/04/28 00:58:12;;;;;;;10.00;5.90;;;;;;;;;;3591706;40;20052;-55
2021/04/28 01:00:39;;;;;;;10.50;5.50;;;;;;;;;;3590042;40;20134;-56
2021/04/28 01:03:05;;;;;;;11.18;5.40;;;;;;;;;;3590979;40;20068;-56
2021/04/28 01:05:32;;;;;;;7.35;5.18;;;;;;;;;;3590989;40;20035;-56
2021/04/28 01:07:59;;;;;;;10.70;5.63;;;;;;;;;;3588808;40;20072;-55
2021/04/28 01:10:35;;;;;;;9.52;5.53;;;;;;;;;;3589931;40;20032;-55
2021/04/28 01:13:03;;;;;;;7.13;5.07;;;;;;;;;;3591496;40;20105;-54
2021/04/28 01:15:31;;;;;;;12.50;4.95;;;;;;;;;;3591268;40;20032;-54
2021/04/28 01:17:57;;;;;;;9.65;5.35;;;;;;;;;;3591852;40;20415;-54
2021/04/28 01:20:24;;;;;;;8.10;5.60;;;;;;;;;;3590386;39;20032;-56
2021/04/28 01:22:51;;;;;;;10.32;6.13;;;;;;;;;;3590190;40;20028;-52
2021/04/28 01:25:22;;;;;;;11.85;5.47;;;;;;;;;;3590226;39;20513;-55
2021/04/28 01:28:34;;;;;;;10.60;5.28;;;;;;;;;;3589543;39;20045;-55
2021/04/28 01:31:10;;;;;;;12.73;6.35;;;;;;;;;;3590407;39;20058;-55
2021/04/28 01:33:38;;;;;;;9.32;4.93;;;;;;;;;;3591125;40;20210;-56
2021/04/28 01:36:07;;;;;;;5.97;4.85;;;;;;;;;;3588529;40;20036;-56
2021/04/28 01:38:40;;;;;;;16.27;6.35;;;;;;;;;;3589231;40;20035;-54
2021/04/28 01:41:07;;;;;;;9.45;5.97;;;;;;;;;;3589739;40;20045;-54
2021/04/28 01:43:33;;;;;;;9.73;5.63;;;;;;;;;;3589350;40;20779;-55
2021/04/28 01:45:59;;;;;;;7.13;5.07;;;;;;;;;;3591436;40;20028;-56
2021/04/28 01:48:24;;;;;;;11.07;5.38;;;;;;;;;;3591031;40;20368;-54
2021/04/28 01:50:51;;;;;;;12.95;5.38;;;;;;;;;;3590558;40;20044;-53
2021/04/28 01:53:20;;;;;;;8.57;5.28;;;;;;;;;;3589829;40;20048;-56
2021/04/28 01:55:46;;;;;;;7.97;5.30;;;;;;;;;;3589138;40;20253;-53
2021/04/28 01:58:13;;;;;;;10.77;5.70;;;;;;;;;;3590338;40;20076;-54
2021/04/28 02:00:39;;;;;;;12.15;5.30;;;;;;;;;;3590777;40;20040;-56
2021/04/28 02:03:05;;;;;;;7.53;5.43;;;;;;;;;;3590274;39;20431;-56
2021/04/28 02:05:31;;;;;;;8.20;5.43;;;;;;;;;;3589794;40;20027;-52
2021/04/28 02:07:56;;;;;;;11.85;5.53;;;;;;;;;;3592117;40;20040;-55
2021/04/28 02:10:22;;;;;;;7.53;5.03;;;;;;;;;;3588936;40;20036;-55
2021/04/28 02:12:49;;;;;;;9.77;5.78;;;;;;;;;;3590931;39;20332;-54
2021/04/28 02:15:16;;;;;;;10.82;5.53;;;;;;;;;;3590108;40;20044;-53
2021/04/28 02:17:43;;;;;;;10.18;5.53;;;;;;;;;;3589396;39;20396;-55
2021/04/28 02:20:14;;;;;;;7.95;5.22;;;;;;;;;;3589834;40;20051;-52
2021/04/28 02:22:41;;;;;;;10.68;5.18;;;;;;;;;;3588516;40;20033;-55
2021/04/28 02:25:07;;;;;;;10.32;5.25;;;;;;;;;;3589327;40;20062;-54
2021/04/28 02:27:34;;;;;;;6.85;5.13;;;;;;;;;;3589681;40;20032;-53
2021/04/28 02:30:00;;;;;;;8.02;5.43;;;;;;;;;;3591785;39;20044;-55
2021/04/28 02:32:26;;;;;;;8.20;5.47;;;;;;;;;;3588040;40;20047;-54
2021/04/28 02:34:51;;;;;;;8.30;4.93;;;;;;;;;;3589815;40;20268;-55
2021/04/28 02:37:19;;;;;;;9.23;4.80;;;;;;;;;;3588893;40;20527;-55
2021/04/28 02:39:51;;;;;;;12.85;5.38;;;;;;;;;;3588683;40;20051;-55
2021/04/28 02:42:16;;;;;;;13.35;6.07;;;;;;;;;;3590367;40;20032;-53
2021/04/28 02:44:46;;;;;;;8.80;5.57;;;;;;;;;;3591489;40;20045;-56
2021/04/28 02:47:12;;;;;;;9.20;5.53;;;;;;;;;;3588764;39;20097;-54
2021/04/28 02:49:42;;;;;;;7.50;5.45;;;;;;;;;;3588383;39;20039;-54
2021/04/28 02:52:07;;;;;;;9.85;6.18;;;;;;;;;;3588843;40;20076;-55
2021/04/28 02:54:35;;;;;;;8.23;5.60;;;;;;;;;;3588883;40;20084;-55
2021/04/28 02:57:01;;;;;;;14.23;5.97;;;;;;;;;;3590022;40;20047;-55
2021/04/28 02:59:27;;;;;;;11.50;5.85;;;;;;;;;;3590113;40;20185;-54
2021/04/28 03:01:53;;;;;;;8.40;5.28;;;;;;;;;;3591570;40;20052;-55
2021/04/28 03:04:18;;;;;;;11.63;5.20;;;;;;;;;;3590018;40;20051;-55
2021/04/28 03:06:44;;;;;;;8.95;5.20;;;;;;;;;;3588918;39;20114;-52
2021/04/28 03:09:13;;;;;;;10.38;6.07;;;;;;;;;;3590048;39;20051;-53
2021/04/28 03:11:40;;;;;;;10.45;5.32;;;;;;;;;;3590738;40;20048;-53
2021/04/28 03:14:06;;;;;;;11.52;5.40;;;;;;;;;;3590664;39;20084;-56
2021/04/28 03:16:32;;;;;;;8.27;5.35;;;;;;;;;;3589556;40;20036;-56
2021/04/28 03:19:05;;;;;;;10.60;4.80;;;;;;;;;;3589098;40;20058;-53
2021/04/28 03:21:35;;;;;;;10.20;5.53;;;;;;;;;;3588276;40;20036;-55
2021/04/28 03:24:01;;;;;;;12.52;5.38;;;;;;;;;;3589691;40;20028;-55
2021/04/28 03:26:28;;;;;;;6.97;5.68;;;;;;;;;;3589907;40;20072;-55
2021/04/28 03:28:53;;;;;;;8.65;5.65;;;;;;;;;;3589435;40;20248;-53
2021/04/28 03:31:19;;;;;;;7.72;5.60;;;;;;;;;;3589013;40;20070;-52
2021/04/28 03:33:45;;;;;;;10.00;4.85;;;;;;;;;;3589211;39;20141;-54
2021/04/28 03:36:10;;;;;;;10.43;5.53;;;;;;;;;;3588793;40;20245;-53
2021/04/28 03:38:35;;;;;;;8.35;5.70;;;;;;;;;;3589515;39;20037;-55
2021/04/28 03:41:03;;;;;;;17.13;6.65;;;;;;;;;;3589733;40;20032;-54
2021/04/28 03:43:28;;;;;;;10.35;6.30;;;;;;;;;;3588354;40;20036;-55
2021/04/28 03:45:54;;;;;;;7.18;4.95;;;;;;;;;;3589702;40;20037;-54
2021/04/28 03:48:19;;;;;;;8.80;5.43;;;;;;;;;;3591213;40;20043;-55
2021/04/28 03:50:44;;;;;;;8.90;5.85;;;;;;;;;;3589109;40;20045;-55
2021/04/28 03:53:10;;;;;;;13.35;5.50;;;;;;;;;;3592136;40;20033;-52
2021/04/28 03:55:35;;;;;;;10.63;5.50;;;;;;;;;;3592302;39;20049;-55
2021/04/28 03:58:01;;;;;;;15.00;6.38;;;;;;;;;;3589336;40;20055;-55
2021/04/28 04:00:26;;;;;;;11.85;6.45;;;;;;;;;;3590694;40;20052;-53
2021/04/28 04:02:52;;;;;;;13.95;5.72;;;;;;;;;;3590212;40;20276;-51
2021/04/28 04:05:17;;;;;;;14.80;6.00;;;;;;;;;;3590553;40;20504;-54
2021/04/28 04:07:43;;;;;;;8.35;5.35;;;;;;;;;;3592060;40;20044;-53
2021/04/28 04:10:09;;;;;;;9.77;5.32;;;;;;;;;;3591835;40;20040;-55
2021/04/28 04:12:34;;;;;;;14.85;6.70;;;;;;;;;;3590004;39;20033;-56
2021/04/28 04:15:00;;;;;;;7.90;5.60;;;;;;;;;;3590127;40;20039;-54
2021/04/28 04:17:25;;;;;;;9.90;6.35;;;;;;;;;;3589053;40;20045;-55
2021/04/28 04:19:52;;;;;;;12.55;6.30;;;;;;;;;;3590313;40;20182;-55
2021/04/28 04:22:17;;;;;;;14.68;5.75;;;;;;;;;;3591776;40;20407;-54
2021/04/28 04:24:43;;;;;;;9.18;5.53;;;;;;;;;;3590351;40;20044;-54
2021/04/28 04:27:08;;;;;;;9.40;6.22;;;;;;;;;;3591332;40;20058;-55
2021/04/28 04:29:34;;;;;;;13.75;5.50;;;;;;;;;;3590258;40;20383;-54
2021/04/28 04:31:59;;;;;;;8.88;5.50;;;;;;;;;;3592399;40;20060;-51
2021/04/28 04:34:25;;;;;;;8.18;5.90;;;;;;;;;;3591887;40;20040;-54
2021/04/28 04:36:50;;;;;;;11.73;6.45;;;;;;;;;;3592171;39;20375;-54
2021/04/28 04:39:15;;;;;;;11.90;5.85;;;;;;;;;;3590914;40;20039;-53
2021/04/28 04:41:41;;;;;;;11.32;6.10;;;;;;;;;;3591273;40;20056;-53
2021/04/28 04:44:06;;;;;;;8.40;5.90;;;;;;;;;;3589202;40;20070;-55
2021/04/28 04:46:32;;;;;;;10.05;5.68;;;;;;;;;;3589712;40;20035;-53
2021/04/28 04:48:57;;;;;;;11.57;6.03;;;;;;;;;;3590928;40;20048;-55
2021/04/28 04:51:23;;;;;;;10.10;5.72;;;;;;;;;;3590721;40;20056;-53
2021/04/28 04:53:49;;;;;;;11.73;6.28;;;;;;;;;;3589454;40;20051;-53
2021/04/28 04:56:14;;;;;;;9.65;5.82;;;;;;;;;;3589675;40;20088;-54
2021/04/28 04:58:39;;;;;;;14.45;5.88;;;;;;;;;;3589741;40;20052;-53
2021/04/28 05:01:05;;;;;;;14.68;5.80;;;;;;;;;;3589955;40;20055;-53
2021/04/28 05:03:30;;;;;;;7.78;5.88;;;;;;;;;;3591481;40;20044;-53
2021/04/28 05:05:56;;;;;;;12.80;6.35;;;;;;;;;;3592004;40;20032;-54
2021/04/28 05:08:21;;;;;;;10.98;5.40;;;;;;;;;;3590474;40;20114;-52
2021/04/28 05:10:47;;;;;;;9.68;6.43;;;;;;;;;;3589575;39;20134;-53
2021/04/28 05:13:12;;;;;;;11.85;6.25;;;;;;;;;;3590700;39;20032;-53
2021/04/28 05:15:38;;;;;;;13.30;6.05;;;;;;;;;;3590226;40;20272;-54
2021/04/28 05:18:04;;;;;;;9.77;6.50;;;;;;;;;;3592274;40;20043;-54
2021/04/28 05:20:29;;;;;;;35.40;6.90;;;;;;;;;;3591829;40;20437;-54
2021/04/28 05:22:55;;;;;;;8.60;5.57;;;;;;;;;;3591169;40;20024;-55
2021/04/28 05:25:21;;;;;;;18.83;6.28;;;;;;;;;;3590942;39;20272;-55
2021/04/28 05:27:46;;;;;;;15.73;6.15;;;;;;;;;;3589567;40;20036;-54
2021/04/28 05:30:12;;;;;;;10.77;5.82;;;;;;;;;;3589613;40;20036;-52
2021/04/28 05:32:40;;;;;;;12.82;6.05;;;;;;;;;;3590404;40;20183;-57
2021/04/28 05:35:07;;;;;;;11.63;6.45;;;;;;;;;;3591265;39;20129;-54
2021/04/28 05:37:33;;;;;;;7.47;5.78;;;;;;;;;;3588432;40;20068;-53
2021/04/28 05:39:58;;;;;;;12.10;6.28;;;;;;;;;;3589055;40;20043;-56
2021/04/28 05:42:23;;;;;;;13.95;6.53;;;;;;;;;;3590225;40;20040;-54
2021/04/28 05:44:49;;;;;;;16.10;6.47;;;;;;;;;;3589867;40;20106;-56
2021/04/28 05:47:15;;;;;;;11.70;5.88;;;;;;;;;;3590522;40;20044;-52
2021/04/28 05:49:40;;;;;;;9.82;6.05;;;;;;;;;;3591878;39;20048;-56
2021/04/28 05:52:06;;;;;;;9.30;5.82;;;;;;;;;;3588594;40;20048;-55
2021/04/28 05:54:32;;;;;;;10.38;6.25;;;;;;;;;;3589268;40;20329;-56
2021/04/28 05:56:58;;;;;;;14.35;5.82;;;;;;;;;;3589542;40;20033;-55
2021/04/28 05:59:24;;;;;;;8.98;6.43;;;;;;;;;;3589337;40;20059;-55
2021/04/28 06:01:49;;;;;;;7.03;5.47;;;;;;;;;;3591470;40;20356;-56
2021/04/28 06:04:16;;;;;;;7.15;5.53;;;;;;;;;;3591603;40;20051;-54
2021/04/28 06:06:41;;;;;;;8.25;5.75;;;;;;;;;;3592518;39;20037;-54
2021/04/28 06:09:07;;;;;;;8.50;5.78;;;;;;;;;;3594100;39;20035;-53
2021/04/28 06:11:32;;;;;;;10.60;5.72;;;;;;;;;;3589053;40;20125;-53
2021/04/28 06:13:57;;;;;;;9.73;5.65;;;;;;;;;;3589755;40;20035;-54
2021/04/28 06:16:24;;;;;;;10.80;5.78;;;;;;;;;;3590976;40;20040;-55
2021/04/28 06:18:49;;;;;;;9.77;5.28;;;;;;;;;;3590067;40;20274;-54
2021/04/28 06:21:15;;;;;;;13.02;6.10;;;;;;;;;;3589488;40;20070;-54
2021/04/28 06:23:40;;;;;;;10.85;6.20;;;;;;;;;;3590725;40;20036;-54
2021/04/28 06:26:06;;;;;;;9.38;5.45;;;;;;;;;;3588734;40;20036;-55
2021/04/28 06:28:32;;;;;;;11.25;5.97;;;;;;;;;;3589978;39;20283;-54
2021/04/28 06:30:57;;;;;;;11.32;6.47;;;;;;;;;;3591155;39;20052;-55
2021/04/28 06:33:23;;;;;;;14.13;6.70;;;;;;;;;;3590245;40;20033;-56
2021/04/28 06:35:48;;;;;;;8.55;6.22;;;;;;;;;;3588844;40;20055;-55
2021/04/28 06:38:14;;;;;;;8.38;5.47;;;;;;;;;;3589316;40;20032;-55
2021/04/28 06:40:39;;;;;;;8.60;5.10;;;;;;;;;;3592048;40;20040;-55
2021/04/28 06:43:06;;;;;;;7.43;5.03;;;;;;;;;;3590123;40;20064;-53
2021/04/28 06:45:32;;;;;;;11.07;5.68;;;;;;;;;;3590608;40;20056;-55
2021/04/28 06:47:58;;;;;;;12.73;5.30;;;;;;;;;;3588193;39;20035;-53
2021/04/28 06:50:24;;;;;;;9.93;5.47;;;;;;;;;;3588436;40;20456;-54
2021/04/28 06:52:50;;;;;;;9.77;5.57;;;;;;;;;;3588521;40;20060;-56
2021/04/28 06:55:15;;;;;;;8.60;6.22;;;;;;;;;;3589356;40;20544;-54
2021/04/28 06:57:41;;;;;;;9.02;5.35;;;;;;;;;;3589722;39;20102;-53
2021/04/28 07:00:07;;;;;;;14.02;5.90;;;;;;;;;;3591019;40;20048;-52
2021/04/28 07:02:33;;;;;;;10.60;6.03;;;;;;;;;;3588233;40;20287;-52
2021/04/28 07:04:58;;;;;;;9.93;5.40;;;;;;;;;;3590260;39;20272;-55
2021/04/28 07:07:23;;;;;;;10.80;5.65;;;;;;;;;;3588905;40;20036;-54
2021/04/28 07:09:49;;;;;;;10.80;5.72;;;;;;;;;;3590205;40;20029;-55
2021/04/28 07:12:15;;;;;;;12.10;6.68;;;;;;;;;;3592781;40;20114;-56
2021/04/28 07:14:40;;;;;;;10.52;6.05;;;;;;;;;;3592265;40;20276;-53
2021/04/28 07:17:08;;;;;;;13.35;6.05;;;;;;;;;;3589632;40;20292;-53
2021/04/28 07:19:34;;;;;;;11.85;5.60;;;;;;;;;;3594659;40;20040;-54
2021/04/28 07:21:59;;;;;;;7.72;5.57;;;;;;;;;;3594402;39;20414;-55
2021/04/28 07:24:25;;;;;;;8.77;5.63;;;;;;;;;;3593395;40;20259;-54
2021/04/28 07:26:50;;;;;;;11.93;5.75;;;;;;;;;;3594569;40;20052;-52
2021/04/28 07:29:15;;;;;;;14.18;6.53;;;;;;;;;;3593879;40;20036;-53
2021/04/28 07:31:41;;;;;;;15.73;6.68;;;;;;;;;;3591185;40;20389;-54
2021/04/28 07:34:06;;;;;;;7.78;5.60;;;;;;;;;;3592322;40;20047;-55
2021/04/28 07:36:32;;;;;;;9.52;5.97;;;;;;;;;;3592132;40;20059;-55
2021/04/28 07:38:58;;;;;;;15.85;6.10;;;;;;;;;;3592627;40;20047;-52
2021/04/28 07:41:24;;;;;;;19.17;5.82;;;;;;;;;;3593461;40;20037;-51
2021/04/28 07:43:49;;;;;;;16.33;6.07;;;;;;;;;;3594134;40;20062;-53
2021/04/28 07:46:15;;;;;;;7.82;5.85;;;;;;;;;;3593106;40;20036;-53
2021/04/28 07:48:40;;;;;;;10.15;5.95;;;;;;;;;;3593356;39;20036;-56
2021/04/28 07:51:06;;;;;;;15.88;6.18;;;;;;;;;;3591699;40;20047;-52
2021/04/28 07:53:31;;;;;;;11.63;6.00;;;;;;;;;;3592315;40;20047;-55
2021/04/28 07:55:57;;;;;;;25.33;7.13;;;;;;;;;;3594159;40;20046;-54
2021/04/28 07:58:22;;;;;;;9.32;6.18;;;;;;;;;;3593093;40;20036;-53
2021/04/28 08:00:48;;;;;;;14.48;6.47;;;;;;;;;;3593142;40;20129;-55
2021/04/28 08:03:13;;;;;;;13.57;6.40;;;;;;;;;;3593029;40;20053;-52
2021/04/28 08:05:38;;;;;;;10.48;6.07;;;;;;;;;;3592054;39;20364;-55
2021/04/28 08:08:05;;;;;;;8.35;6.40;;;;;;;;;;3592518;40;20048;-53
2021/04/28 08:10:32;;;;;;;9.82;7.07;;;;;;;;;;3593840;40;20360;-56
2021/04/28 08:12:58;;;;;;;8.73;6.32;;;;;;;;;;3591482;40;20166;-53
2021/04/28 08:15:24;;;;;;;10.02;6.22;;;;;;;;;;3591545;40;20384;-54
2021/04/28 08:17:49;;;;;;;10.48;6.53;;;;;;;;;;3592137;40;20391;-55
2021/04/28 08:20:15;;;;;;;10.23;6.70;;;;;;;;;;3593992;40;20121;-55
2021/04/28 08:22:41;;;;;;;12.23;6.15;;;;;;;;;;3593408;40;20263;-54
2021/04/28 08:25:10;;;;;;;9.77;6.45;;;;;;;;;;3593013;40;20080;-53
2021/04/28 08:27:36;;;;;;;14.77;6.97;;;;;;;;;;3591837;40;20036;-53
2021/04/28 08:30:08;;;;;;;10.18;7.38;;;;;;;;;;3589591;40;20047;-55
2021/04/28 08:32:34;;;;;;;14.43;6.45;;;;;;;;;;3590610;40;20052;-54
2021/04/28 08:34:59;;;;;;;13.15;8.20;;;;;;;;;;3590750;39;20039;-56
2021/04/28 08:37:25;;;;;;;12.95;10.60;;;;;;;;;;3592799;40;20365;-56
2021/04/28 08:39:50;;;;;;;13.07;7.20;;;;;;;;;;3594261;40;20042;-54
2021/04/28 08:42:17;;;;;;;15.10;9.18;;;;;;;;;;3589346;40;20094;-55
2021/04/28 08:44:43;;;;;;;11.77;8.00;;;;;;;;;;3589797;40;20045;-56
2021/04/28 08:47:09;;;;;;;16.48;9.00;;;;;;;;;;3590374;40;20387;-55
2021/04/28 08:49:35;;;;;;;10.90;8.00;;;;;;;;;;3590073;39;20044;-55
2021/04/28 08:52:01;;;;;;;19.25;7.05;;;;;;;;;;3591231;40;20040;-55
2021/04/28 08:54:27;;;;;;;16.35;7.72;;;;;;;;;;3590998;40;20029;-56
2021/04/28 08:56:55;;;;;;;11.45;7.40;;;;;;;;;;3588613;40;20055;-56
2021/04/28 08:59:21;;;;;;;14.32;7.93;;;;;;;;;;3589772;39;20063;-55
2021/04/28 09:01:47;;;;;;;11.88;8.15;;;;;;;;;;3588876;40;20493;-56
2021/04/28 09:04:15;;;;;;;15.93;8.25;;;;;;;;;;3589495;39;20040;-52
2021/04/28 09:06:41;;;;;;;10.60;7.93;;;;;;;;;;3591192;40;20028;-54
2021/04/28 09:09:08;;;;;;;19.98;8.13;;;;;;;;;;3590291;40;20068;-55
2021/04/28 09:11:54;;;;;;;10.63;8.35;;;;;;;;;;3588678;40;20047;-52
2021/04/28 09:14:23;;;;;;;17.17;9.75;;;;;;;;;;3589472;40;20037;-52
2021/04/28 09:16:54;;;;;;;9.85;7.53;;;;;;;;;;3589928;40;20125;-56
2021/04/28 09:19:36;;;;;;;12.52;8.73;;;;;;;;;;3591226;40;20036;-56
2021/04/28 09:22:08;;;;;;;10.77;8.52;;;;;;;;;;3591082;40;20039;-53
2021/04/28 09:24:35;;;;;;;11.80;8.73;;;;;;;;;;3589783;40;20032;-54
2021/04/28 09:27:02;;;;;;;14.18;9.32;;;;;;;;;;3589586;40;20043;-53
2021/04/28 09:29:30;;;;;;;12.75;8.48;;;;;;;;;;3589263;40;20045;-55
2021/04/28 09:31:58;;;;;;;11.40;8.90;;;;;;;;;;3588916;40;20028;-52
2021/04/28 09:34:29;;;;;;;15.07;8.85;;;;;;;;;;3590893;40;20039;-51
2021/04/28 09:37:03;;;;;;;23.52;9.10;;;;;;;;;;3592279;39;20317;-55
2021/04/28 09:39:28;;;;;;;14.82;9.98;;;;;;;;;;3588693;40;20360;-53
2021/04/28 09:41:56;;;;;;;12.73;9.07;;;;;;;;;;3589543;40;20047;-54
2021/04/28 09:44:31;;;;;;;12.07;9.07;;;;;;;;;;3589087;39;20434;-53
2021/04/28 09:47:08;;;;;;;16.13;9.40;;;;;;;;;;3590444;40;20113;-55
2021/04/28 09:49:50;;;;;;;14.20;9.23;;;;;;;;;;3589764;40;20338;-54
2021/04/28 09:52:22;;;;;;;23.75;8.10;;;;;;;;;;3589955;40;20132;-55
2021/04/28 09:54:52;;;;;;;14.35;8.43;;;;;;;;;;3588965;40;20052;-53
2021/04/28 09:57:32;;;;;;;12.33;8.60;;;;;;;;;;3589387;40;20815;-51
2021/04/28 09:59:57;;;;;;;14.52;9.90;;;;;;;;;;3591204;40;20037;-55
2021/04/28 10:02:28;;;;;;;13.73;10.25;;;;;;;;;;3590428;40;20815;-54
2021/04/28 10:05:13;;;;;;;20.63;10.20;;;;;;;;;;3592121;40;20046;-53
2021/04/28 10:07:39;;;;;;;12.63;9.60;;;;;;;;;;3588243;40;20042;-53
2021/04/28 10:10:05;;;;;;;18.20;9.43;;;;;;;;;;3589164;40;20044;-54
2021/04/28 10:12:30;;;;;;;16.35;9.45;;;;;;;;;;3590564;40;20032;-55
2021/04/28 10:14:55;;;;;;;13.00;8.90;;;;;;;;;;3589914;40;20151;-55
2021/04/28 10:17:22;;;;;;;13.48;9.00;;;;;;;;;;3590181;40;20301;-54
2021/04/28 10:19:49;;;;;;;15.70;9.50;;;;;;;;;;3590669;40;20048;-55
2021/04/28 10:22:19;;;;;;;16.98;10.18;;;;;;;;;;3588704;40;20035;-55
2021/04/28 10:24:53;;;;;;;14.00;9.98;;;;;;;;;;3589488;40;20079;-55
2021/04/28 10:27:19;;;;;;;12.18;10.63;;;;;;;;;;3590641;40;20260;-54
2021/04/28 10:29:47;;;;;;;12.70;9.70;;;;;;;;;;3590371;40;20035;-54
2021/04/28 10:32:14;;;;;;;14.60;10.50;;;;;;;;;;3591017;40;20058;-55
2021/04/28 10:34:46;;;;;;;14.48;10.85;;;;;;;;;;3590894;40;20032;-52
2021/04/28 10:37:12;;;;;;;14.02;11.43;;;;;;;;;;3590103;40;20117;-56
2021/04/28 10:39:38;;;;;;;17.92;10.30;;;;;;;;;;3589201;40;20526;-56
2021/04/28 10:42:06;;;;;;;13.38;10.98;;;;;;;;;;3589218;40;20047;-56
2021/04/28 10:44:38;;;;;;;19.60;11.90;;;;;;;;;;3590882;40;20583;-56
2021/04/28 10:47:27;;;;;;;13.13;10.70;;;;;;;;;;3590950;40;20036;-54
2021/04/28 10:50:08;;;;;;;19.02;10.73;;;;;;;;;;3589494;40;20545;-55
2021/04/28 10:52:39;;;;;;;15.32;11.32;;;;;;;;;;3589798;39;20042;-54
2021/04/28 10:55:05;;;;;;;13.18;10.50;;;;;;;;;;3589166;40;20133;-55
2021/04/28 10:57:40;;;;;;;15.07;11.23;;;;;;;;;;3591893;40;20032;-55
2021/04/28 11:00:20;;;;;;;17.60;10.57;;;;;;;;;;3589016;40;20045;-53
2021/04/28 11:02:46;;;;;;;13.98;10.13;;;;;;;;;;3590558;40;20355;-53
2021/04/28 11:05:28;;;;;;;13.80;10.77;;;;;;;;;;3589130;40;20043;-54
2021/04/28 11:07:59;;;;;;;16.27;11.70;;;;;;;;;;3589217;40;20028;-55
2021/04/28 11:10:26;;;;;;;17.75;12.75;;;;;;;;;;3589044;40;20052;-55
2021/04/28 11:13:14;;;;;;;17.60;11.75;;;;;;;;;;3590552;39;20032;-55
2021/04/28 11:15:54;;;;;;;17.58;12.60;;;;;;;;;;3593240;40;20326;-56
2021/04/28 11:18:33;;;;;;;18.58;11.43;;;;;;;;;;3588779;40;20607;-55
2021/04/28 11:21:11;;;;;;;16.90;11.32;;;;;;;;;;3589446;40;20040;-55
2021/04/28 11:23:38;;;;;;;14.77;11.73;;;;;;;;;;3589144;39;20028;-55
2021/04/28 11:26:32;;;;;;;18.63;11.90;;;;;;;;;;3588980;40;20043;-55
2021/04/28 11:28:57;;;;;;;17.73;13.15;;;;;;;;;;3590095;40;20044;-55
2021/04/28 11:31:37;;;;;;;14.10;12.40;;;;;;;;;;3590755;40;20065;-55
2021/04/28 11:34:18;;;;;;;18.80;13.45;;;;;;;;;;3588509;40;20040;-52
2021/04/28 11:36:51;;;;;;;16.92;13.15;;;;;;;;;;3588765;40;20053;-54
2021/04/28 11:39:35;;;;;;;20.30;13.73;;;;;;;;;;3589798;40;20380;-55
2021/04/28 11:42:12;;;;;;;18.73;12.90;;;;;;;;;;3590479;40;20036;-54
2021/04/28 11:44:57;;;;;;;18.42;13.77;;;;;;;;;;3590814;40;20036;-56
2021/04/28 11:47:24;;;;;;;17.83;13.13;;;;;;;;;;3588070;39;20138;-55
2021/04/28 11:49:53;;;;;;;22.13;13.27;;;;;;;;;;3591620;40;20066;-55
2021/04/28 11:52:20;;;;;;;15.02;12.10;;;;;;;;;;3589500;40;20041;-54
2021/04/28 11:54:46;;;;;;;16.45;13.93;;;;;;;;;;3588800;40;20129;-53
2021/04/28 11:57:12;;;;;;;16.23;14.02;;;;;;;;;;3590179;40;20075;-53
2021/04/28 11:59:38;;;;;;;19.08;14.30;;;;;;;;;;3590129;39;20044;-55
2021/04/28 12:02:06;;;;;;;16.95;13.25;;;;;;;;;;3588099;40;20106;-55
2021/04/28 12:04:37;;;;;;;15.85;12.45;;;;;;;;;;3589782;40;20367;-54
2021/04/28 12:07:03;;;;;;;;;;;;;;;;;;3607485;39;20039;-55
2021/04/28 12:09:50;;;;;;;17.80;12.77;;;;;;;;;;3606600;39;20318;-54
2021/04/28 12:12:23;;;;;;;17.45;12.95;;;;;;;;;;3606189;39;20054;-56
2021/04/28 12:15:12;;;;;;;16.17;11.80;;;;;;;;;;3606201;39;20040;-56
2021/04/28 12:17:40;;;;;;;21.70;11.88;;;;;;;;;;3607726;39;20042;-54
2021/04/28 12:20:09;;;;;;;16.13;11.73;;;;;;;;;;3607180;39;20083;-56
2021/04/28 12:22:35;;;;;;;13.00;11.65;;;;;;;;;;3603633;39;20039;-52
2021/04/28 12:25:02;;;;;;;18.10;12.05;;;;;;;;;;3606648;39;20044;-56
2021/04/28 12:27:33;;;;;;;14.52;11.52;;;;;;;;;;3597394;39;20043;-56
2021/04/28 12:30:14;;;;;;;15.65;9.65;;;;;;;;;;3606664;39;20034;-57
2021/04/28 12:32:45;;;;;;;11.88;8.23;;;;;;;;;;3607084;39;20035;-55
2021/04/28 12:35:13;;;;;;;;;;;;;;;;;;3605872;39;20031;-56
2021/04/28 12:37:40;;;;;;;12.52;9.05;;;;;;;;;;3605724;39;19932;-57
2021/04/28 12:40:10;;;;;;;14.90;8.73;;;;;;;;;;3607470;39;20497;-54
2021/04/28 12:42:39;;;;;;;12.20;8.57;;;;;;;;;;3608290;39;20448;-56
2021/04/28 12:45:11;;;;;;;20.63;8.75;;;;;;;;;;3607910;39;20039;-53
2021/04/28 12:47:36;;;;;;;12.73;8.30;;;;;;;;;;3607229;39;20043;-56
2021/04/28 12:50:09;;;;;;;11.27;8.75;;;;;;;;;;3606841;39;20039;-54
2021/04/28 12:52:44;;;;;;;10.82;7.13;;;;;;;;;;3607758;39;20039;-56
2021/04/28 12:55:23;;;;;;;14.48;7.35;;;;;;;;;;3607139;39;20066;-55
2021/04/28 12:58:10;;;;;;;10.73;6.47;;;;;;;;;;3607284;39;20035;-55
2021/04/28 13:00:49;;;;;;;11.65;6.88;;;;;;;;;;3605141;39;20121;-53
2021/04/28 13:03:19;;;;;;;8.73;5.60;;;;;;;;;;3607472;39;20032;-56
2021/04/28 13:05:57;;;;;;;7.95;5.82;;;;;;;;;;3607407;39;20100;-55
2021/04/28 13:08:31;;;;;;;10.80;6.70;;;;;;;;;;3599058;39;20032;-53
2021/04/28 13:11:06;;;;;;;7.55;5.82;;;;;;;;;;3605969;39;20070;-54
2021/04/28 13:13:34;;;;;;;10.70;5.90;;;;;;;;;;3606871;39;20042;-55
2021/04/28 13:16:00;;;;;;;13.23;7.35;;;;;;;;;;3607293;39;20032;-55
2021/04/28 13:18:26;;;;;;;11.05;7.13;;;;;;;;;;3606019;39;20035;-53
2021/04/28 13:20:52;;;;;;;10.50;8.55;;;;;;;;;;3607990;39;20065;-54
2021/04/28 13:23:20;;;;;;;14.00;7.45;;;;;;;;;;3607061;39;20036;-53
2021/04/28 13:25:56;;;;;;;11.15;7.70;;;;;;;;;;3607107;39;20071;-54
2021/04/28 13:28:33;;;;;;;9.13;7.53;;;;;;;;;;3606719;39;20543;-56
2021/04/28 13:31:22;;;;;;;11.82;8.10;;;;;;;;;;3606138;39;20038;-53
2021/04/28 13:33:49;;;;;;;9.75;6.65;;;;;;;;;;3607638;39;20512;-54
2021/04/28 13:36:21;;;;;;;10.10;6.90;;;;;;;;;;3608635;39;20039;-56
2021/04/28 13:38:49;;;;;;;10.35;7.50;;;;;;;;;;3606877;39;20165;-56
2021/04/28 13:41:16;;;;;;;10.05;6.78;;;;;;;;;;3606242;39;20071;-52
2021/04/28 13:43:42;;;;;;;9.30;6.88;;;;;;;;;;3608616;39;20039;-56
2021/04/28 13:46:07;;;;;;;8.75;6.43;;;;;;;;;;3605690;39;20046;-53
2021/04/28 13:48:33;;;;;;;8.77;6.47;;;;;;;;;;3607650;39;20194;-55
2021/04/28 13:50:58;;;;;;;11.07;6.75;;;;;;;;;;3606863;39;20032;-56
2021/04/28 13:53:24;;;;;;;10.52;7.57;;;;;;;;;;3606389;39;20040;-52
2021/04/28 13:55:49;;;;;;;9.70;7.93;;;;;;;;;;3608837;39;20133;-56
2021/04/28 13:58:15;;;;;;;11.20;7.57;;;;;;;;;;3607465;39;20040;-56
2021/04/28 14:00:40;;;;;;;13.75;8.55;;;;;;;;;;3607015;39;20117;-54
2021/04/28 14:03:05;;;;;;;13.63;7.82;;;;;;;;;;3606437;39;20036;-54
2021/04/28 14:05:31;;;;;;;9.35;7.07;;;;;;;;;;3607322;39;20035;-54
2021/04/28 14:07:56;;;;;;;10.98;7.63;;;;;;;;;;3606815;39;20090;-50
2021/04/28 14:10:22;;;;;;;11.27;7.70;;;;;;;;;;3606631;39;20040;-55
2021/04/28 14:12:47;;;;;;;11.95;6.88;;;;;;;;;;3606474;39;20059;-54
2021/04/28 14:15:13;;;;;;;9.18;6.70;;;;;;;;;;3606600;39;20426;-52
2021/04/28 14:17:38;;;;;;;10.68;7.13;;;;;;;;;;3606755;39;20463;-55
2021/04/28 14:20:06;;;;;;;8.77;6.38;;;;;;;;;;3612875;39;20023;-55
2021/04/28 14:22:31;;;;;;;8.38;6.38;;;;;;;;;;3615871;39;20036;-55
2021/04/28 14:24:57;;;;;;;14.02;6.70;;;;;;;;;;3616461;39;20426;-53
2021/04/28 14:27:22;;;;;;;10.70;7.00;;;;;;;;;;3616733;39;20034;-53
2021/04/28 14:29:48;;;;;;;15.20;7.50;;;;;;;;;;3615734;39;20031;-54
2021/04/28 14:32:14;;;;;;;10.10;7.30;;;;;;;;;;3613652;39;20127;-56
2021/04/28 14:34:39;;;;;;;8.88;6.95;;;;;;;;;;3616167;39;20043;-55
2021/04/28 14:37:05;;;;;;;12.73;7.68;;;;;;;;;;3616210;39;20335;-56
2021/04/28 14:39:30;;;;;;;10.45;7.75;;;;;;;;;;3615646;39;20045;-55